Montrose, Pennsylvania
Current Conditions -  °F | °C
As of 3:53 AM on Wednesday 22 Oct 2014 (Local Time) from KBGM Reporting Station
Overcast Overcast  
Wind Chill: 43°   Ceiling: 600
Heat Index: 48°   Visibility: 10mi
Dew Point: 46°   Wind: 10mph
Humidity: 93%   Direction: 50°NE
Pressure: 29.98"   Gusts: NA
Location:  41.83°N, 75.88°W
Report Text: KBGM 220753Z AUTO 05009KT 10SM OVC006 09/08 A2998 RMK AO2 RAE51 SLP155 P0000 T00890078
Loading
Personal Weather Stations






























Interactive Weather Map
Tropical Storm Tracking
New forecast layout! Learn more

10-Day Weather Forecast

Advertisements
Track Severe Weather on mobile